Time;durP1;ratioP1;P1;durP2;ratioP2;P2;SDS_P1;SDS_P2;PMS_P1;PMS_P2;Temp;Humidity;BMP_temperature;BMP_pressure;BME280_temperature;BME280_humidity;BME280_pressure;Samples;Min_cycle;Max_cycle;Signal;HPM_P1;HPM_P2
2022/02/13 00:08:01;;;;;;;25.63;11.07;;;0.10;99.90;;;;;;20653697;28;20041;-76
2022/02/13 00:18:03;;;;;;;15.82;9.05;;;0.10;99.90;;;;;;20653455;28;20059;-74
2022/02/13 00:28:08;;;;;;;23.80;10.68;;;0.10;99.90;;;;;;20650240;28;20770;-73
2022/02/13 00:38:09;;;;;;;19.73;10.23;;;0.00;99.90;;;;;;20631056;28;20606;-76
2022/02/13 00:48:11;;;;;;;20.27;9.93;;;0.00;99.90;;;;;;20660852;28;20042;-75
2022/02/13 00:58:12;;;;;;;32.75;10.45;;;-0.20;99.90;;;;;;20674694;28;20626;-75
2022/02/13 01:08:13;;;;;;;17.20;6.88;;;-0.20;99.90;;;;;;20687998;28;20038;-75
2022/02/13 01:18:14;;;;;;;15.00;6.85;;;-0.20;99.90;;;;;;20704374;28;20026;-76
2022/02/13 01:28:14;;;;;;;13.95;5.75;;;-0.20;99.90;;;;;;20706997;28;20165;-76
2022/02/13 01:38:15;;;;;;;17.10;7.75;;;-0.30;99.90;;;;;;20710519;28;20399;-76
2022/02/13 01:48:16;;;;;;;20.00;9.55;;;-0.50;99.90;;;;;;20779778;23;20052;-77
2022/02/13 01:58:17;;;;;;;25.33;11.07;;;-0.70;99.90;;;;;;20828360;28;20037;-78
2022/02/13 02:08:18;;;;;;;21.65;10.23;;;-0.80;99.90;;;;;;20827664;28;20036;-78
2022/02/13 02:18:19;;;;;;;17.08;10.20;;;-0.90;99.90;;;;;;20825732;28;20045;-77
2022/02/13 02:28:19;;;;;;;23.63;10.25;;;-1.00;99.90;;;;;;20827217;28;20061;-77
2022/02/13 02:38:21;;;;;;;26.02;10.27;;;-1.00;99.90;;;;;;20826978;28;20040;-78
2022/02/13 02:48:21;;;;;;;22.38;9.85;;;-1.00;99.90;;;;;;20827410;28;20053;-78
2022/02/13 02:58:26;;;;;;;22.20;10.07;;;-1.00;99.90;;;;;;20809514;28;20032;-77
2022/02/13 03:08:27;;;;;;;14.95;8.05;;;-1.10;99.90;;;;;;20826555;28;20025;-78
2022/02/13 03:18:30;;;;;;;14.43;6.80;;;-1.10;99.90;;;;;;20791104;28;20439;-77
2022/02/13 03:28:30;;;;;;;18.40;8.25;;;-1.00;99.90;;;;;;20801735;28;20033;-78
2022/02/13 03:38:31;;;;;;;18.33;8.65;;;-1.20;99.90;;;;;;20839682;28;20088;-78
2022/02/13 03:48:32;;;;;;;19.15;8.80;;;-1.20;99.90;;;;;;20838516;28;20048;-77
2022/02/13 03:58:33;;;;;;;15.95;7.72;;;-1.30;99.90;;;;;;20790555;28;20129;-78
2022/02/13 04:08:33;;;;;;;19.25;7.68;;;-1.40;99.90;;;;;;20792545;28;20026;-78
2022/02/13 04:18:34;;;;;;;18.70;10.20;;;-1.30;99.90;;;;;;20792969;28;20028;-77
2022/02/13 04:28:35;;;;;;;18.50;9.73;;;-1.30;99.90;;;;;;20813155;28;20041;-78
2022/02/13 04:38:37;;;;;;;15.85;8.05;;;-1.30;99.90;;;;;;20833819;28;20452;-77
2022/02/13 04:48:38;;;;;;;18.15;7.68;;;-1.40;99.90;;;;;;20832615;28;20045;-78
2022/02/13 04:58:39;;;;;;;22.80;7.25;;;-1.30;99.90;;;;;;20833600;28;20032;-78
2022/02/13 05:08:40;;;;;;;16.65;7.82;;;-1.40;99.90;;;;;;20798841;28;20029;-77
2022/02/13 05:18:40;;;;;;;16.48;7.25;;;-1.60;99.90;;;;;;20813889;28;20041;-77
2022/02/13 05:28:42;;;;;;;14.15;6.72;;;-1.40;99.90;;;;;;20830884;28;20025;-77
2022/02/13 05:38:43;;;;;;;15.52;6.22;;;-1.40;99.90;;;;;;20830099;28;20091;-77
2022/02/13 05:48:45;;;;;;;23.52;10.32;;;-1.50;99.90;;;;;;20829251;28;20033;-77
2022/02/13 05:58:47;;;;;;;23.38;11.90;;;-1.50;99.90;;;;;;20828687;28;20034;-77
2022/02/13 06:08:48;;;;;;;26.00;12.02;;;-1.60;99.90;;;;;;20828235;28;20035;-77
2022/02/13 06:18:48;;;;;;;24.05;11.23;;;-1.70;99.90;;;;;;20827323;28;20230;-77
2022/02/13 06:28:50;;;;;;;26.73;12.40;;;-1.80;99.90;;;;;;20801709;28;20029;-77
2022/02/13 06:38:51;;;;;;;28.73;13.05;;;-1.70;99.90;;;;;;20744312;28;20396;-78
2022/02/13 06:48:51;;;;;;;29.40;12.77;;;-1.70;99.90;;;;;;20729209;28;20034;-77
2022/02/13 06:58:52;;;;;;;26.33;11.82;;;-1.60;99.90;;;;;;20725035;28;20038;-78
2022/02/13 07:08:53;;;;;;;27.67;13.38;;;-1.50;99.90;;;;;;20742573;28;20034;-77
2022/02/13 07:18:54;;;;;;;24.05;12.43;;;-1.20;99.90;;;;;;20725219;28;20034;-77
2022/02/13 07:29:01;;;;;;;22.88;10.88;;;-0.80;99.90;;;;;;20742339;28;20038;-77
2022/02/13 07:39:03;;;;;;;21.80;11.82;;;-0.40;99.90;;;;;;20724364;28;20034;-77
2022/02/13 07:49:05;;;;;;;24.33;11.38;;;0.00;99.90;;;;;;20815343;23;20158;-76
2022/02/13 07:59:06;;;;;;;19.67;9.70;;;0.60;99.90;;;;;;20822820;28;20500;-76
2022/02/13 08:09:07;;;;;;;19.52;10.52;;;1.00;99.90;;;;;;20823404;28;20038;-76
2022/02/13 08:19:08;;;;;;;23.38;10.27;;;1.50;99.90;;;;;;20836440;28;20034;-75
2022/02/13 08:29:08;;;;;;;21.55;10.73;;;1.80;99.90;;;;;;20835237;28;20032;-75
2022/02/13 08:39:09;;;;;;;19.35;10.05;;;2.30;99.90;;;;;;20813565;28;20029;-75
2022/02/13 08:49:10;;;;;;;;;;;3.20;99.90;;;;;;20794896;28;20423;-76
2022/02/13 08:59:11;;;;;;;18.13;10.10;;;4.30;99.90;;;;;;20813742;28;20415;-76
2022/02/13 09:09:12;;;;;;;23.30;10.80;;;4.60;99.90;;;;;;20813228;28;20040;-76
2022/02/13 09:19:13;;;;;;;;;;;5.40;99.90;;;;;;20811714;28;20041;-76
2022/02/13 09:29:14;;;;;;;19.98;10.13;;;5.60;99.90;;;;;;20812212;28;19921;-78
2022/02/13 09:39:15;;;;;;;17.85;9.27;;;6.30;99.90;;;;;;20820723;28;20104;-77
2022/02/13 09:49:18;;;;;;;13.83;8.53;;;7.10;99.90;;;;;;20810853;28;20034;-77
2022/02/13 09:59:19;;;;;;;14.90;7.93;;;7.30;99.90;;;;;;20785254;28;20033;-77
2022/02/13 10:09:37;;;;;;;13.67;8.50;;;7.90;99.90;;;;;;20797718;28;20056;-77
2022/02/13 10:19:37;;;;;;;16.95;8.90;;;7.60;99.90;;;;;;20795862;28;20033;-77
2022/02/13 10:29:44;;;;;;;11.73;7.47;;;8.70;99.90;;;;;;20811265;28;20048;-76
2022/02/13 10:39:48;;;;;;;12.93;8.23;;;9.90;99.90;;;;;;20809736;28;20106;-76
2022/02/13 10:49:51;;;;;;;11.82;7.22;;;9.80;99.90;;;;;;20790030;28;20395;-77
2022/02/13 10:59:52;;;;;;;12.07;7.88;;;12.20;99.90;;;;;;20788205;28;20037;-77
2022/02/13 11:09:54;;;;;;;10.80;6.87;;;13.10;99.90;;;;;;20805463;28;20044;-76
2022/02/13 11:19:56;;;;;;;12.63;7.28;;;12.80;99.90;;;;;;20806543;28;20045;-76
2022/02/13 11:30:01;;;;;;;10.90;7.47;;;13.30;99.90;;;;;;20804893;28;20515;-77
2022/02/13 11:40:02;;;;;;;12.48;7.50;;;12.10;99.90;;;;;;20803618;28;20103;-76
2022/02/13 11:50:11;;;;;;;11.93;7.43;;;11.70;99.90;;;;;;20817546;28;20495;-77
2022/02/13 12:00:13;;;;;;;16.42;7.18;;;10.80;99.90;;;;;;20822577;28;20029;-77
2022/02/13 12:10:36;;;;;;;13.18;6.63;;;12.20;99.90;;;;;;20821959;28;20128;-77
2022/02/13 12:20:38;;;;;;;15.85;6.95;;;11.90;99.90;;;;;;20820006;28;20045;-77
2022/02/13 12:30:48;;;;;;;12.65;6.43;;;11.90;99.90;;;;;;20812426;28;20029;-77
2022/02/13 12:40:49;;;;;;;9.38;6.20;;;12.10;99.90;;;;;;20815003;28;20132;-77
2022/02/13 12:50:52;;;;;;;11.50;6.37;;;12.10;99.90;;;;;;20813673;28;20152;-76
2022/02/13 13:00:54;;;;;;;9.40;5.78;;;13.60;99.90;;;;;;20824011;28;20127;-77
2022/02/13 13:10:59;;;;;;;11.75;5.93;;;13.90;99.90;;;;;;20804542;28;20033;-76
2022/02/13 13:21:16;;;;;;;9.15;4.97;;;14.40;99.90;;;;;;20787103;28;20483;-76
2022/02/13 13:31:17;;;;;;;7.57;5.07;;;14.60;99.90;;;;;;20761152;28;20096;-75
2022/02/13 13:41:17;;;;;;;10.40;5.77;;;15.40;99.90;;;;;;20733075;28;20464;-75
2022/02/13 13:51:18;;;;;;;9.73;4.73;;;14.10;99.90;;;;;;20824722;23;20049;-78
2022/02/13 14:01:19;;;;;;;8.83;5.17;;;14.10;99.90;;;;;;20833164;28;20079;-78
2022/02/13 14:11:20;;;;;;;12.80;5.03;;;14.70;99.90;;;;;;20832696;28;20028;-78
2022/02/13 14:21:21;;;;;;;7.13;4.23;;;15.70;99.90;;;;;;20832131;28;20021;-78
2022/02/13 14:31:22;;;;;;;8.10;3.70;;;16.10;99.90;;;;;;20832004;28;20056;-78
2022/02/13 14:41:24;;;;;;;6.93;3.90;;;16.00;99.90;;;;;;20830820;28;20531;-78
2022/02/13 14:51:27;;;;;;;6.35;3.50;;;16.00;99.90;;;;;;20829708;28;20400;-78
2022/02/13 15:01:28;;;;;;;7.60;3.40;;;14.80;99.90;;;;;;20811612;28;20127;-77
2022/02/13 15:11:28;;;;;;;8.90;3.60;;;13.90;99.90;;;;;;20810855;28;20113;-77
2022/02/13 15:21:29;;;;;;;10.20;3.60;;;12.80;99.90;;;;;;20817414;28;20029;-77
2022/02/13 15:31:30;;;;;;;6.60;3.37;;;12.30;99.90;;;;;;20843331;28;20484;-77
2022/02/13 15:41:31;;;;;;;9.10;3.17;;;12.40;99.90;;;;;;20825131;28;20033;-78
2022/02/13 15:51:32;;;;;;;8.07;3.00;;;11.80;99.90;;;;;;20824378;28;20095;-77
2022/02/13 16:01:33;;;;;;;8.37;3.87;;;11.90;99.90;;;;;;20841415;28;20029;-77
2022/02/13 16:11:33;;;;;;;9.90;4.70;;;11.40;99.90;;;;;;20822157;28;20032;-77
2022/02/13 16:21:34;;;;;;;6.63;3.20;;;10.50;99.90;;;;;;20837886;28;20053;-78
2022/02/13 16:31:37;;;;;;;8.63;4.23;;;9.90;99.90;;;;;;20835203;28;20022;-77
2022/02/13 16:41:38;;;;;;;9.20;3.90;;;9.50;99.90;;;;;;20835252;28;20044;-77
2022/02/13 16:51:39;;;;;;;5.43;2.53;;;9.20;99.90;;;;;;20816338;28;20480;-78
2022/02/13 17:01:40;;;;;;;7.03;3.30;;;8.40;99.90;;;;;;20816021;28;20072;-78
2022/02/13 17:11:41;;;;;;;8.13;3.67;;;7.80;99.90;;;;;;20833098;28;20276;-77
2022/02/13 17:21:42;;;;;;;8.00;3.77;;;6.90;99.90;;;;;;20832014;28;20480;-77
2022/02/13 17:31:42;;;;;;;6.37;3.80;;;6.10;99.90;;;;;;20813959;28;20037;-78
2022/02/13 17:41:43;;;;;;;7.03;4.07;;;6.30;99.90;;;;;;20812552;28;20029;-76
2022/02/13 17:51:44;;;;;;;12.07;4.77;;;5.30;99.90;;;;;;20811802;28;20041;-76
2022/02/13 18:01:45;;;;;;;13.33;4.70;;;4.70;99.90;;;;;;20832680;28;20033;-76
2022/02/13 18:11:46;;;;;;;11.50;5.60;;;4.70;99.90;;;;;;20810524;28;20507;-78
2022/02/13 18:21:48;;;;;;;14.00;5.63;;;4.50;99.90;;;;;;20815247;28;20307;-77
2022/02/13 18:31:48;;;;;;;7.88;4.80;;;4.00;99.90;;;;;;20816190;28;20025;-79
2022/02/13 18:41:50;;;;;;;;;;;3.90;99.90;;;;;;20834127;28;20040;-78
2022/02/13 18:51:50;;;;;;;11.35;4.82;;;3.30;99.90;;;;;;20812902;28;19913;-77
2022/02/13 19:01:51;;;;;;;;;;;3.50;99.90;;;;;;20816517;28;20033;-78
2022/02/13 19:11:54;;;;;;;15.98;5.70;;;3.40;99.90;;;;;;20816905;28;19980;-78
2022/02/13 19:21:54;;;;;;;11.18;4.22;;;2.60;99.90;;;;;;20828831;28;20034;-78
2022/02/13 19:31:55;;;;;;;7.40;4.10;;;2.20;99.90;;;;;;20816332;28;20059;-77
2022/02/13 19:41:56;;;;;;;8.40;3.65;;;2.20;99.90;;;;;;20820176;28;20044;-77
2022/02/13 19:51:57;;;;;;;9.32;3.88;;;2.80;99.90;;;;;;20831982;22;20045;-75
2022/02/13 20:01:58;;;;;;;;;;;2.90;99.90;;;;;;20777832;28;20169;-76
2022/02/13 20:11:59;;;;;;;9.32;4.53;;;2.90;99.90;;;;;;20771759;28;19936;-76
2022/02/13 20:22:01;;;;;;;;;;;2.70;99.90;;;;;;20781195;28;20056;-77
2022/02/13 20:32:02;;;;;;;10.20;3.37;;;2.80;99.90;;;;;;20781653;28;19988;-76
2022/02/13 20:42:03;;;;;;;;;;;3.10;99.90;;;;;;20804607;28;20037;-74
2022/02/13 20:52:05;;;;;;;8.68;3.90;;;2.90;99.90;;;;;;20795844;28;19939;-76
2022/02/13 21:02:07;;;;;;;10.02;3.55;;;2.90;99.90;;;;;;20789361;28;20431;-76
2022/02/13 21:12:08;;;;;;;6.30;3.88;;;2.90;99.90;;;;;;20804352;28;20472;-76
2022/02/13 21:22:09;;;;;;;6.85;3.60;;;2.70;99.90;;;;;;20782794;28;20026;-75
2022/02/13 21:32:10;;;;;;;7.43;4.28;;;2.50;99.90;;;;;;20803493;28;20405;-75
2022/02/13 21:42:10;;;;;;;8.23;4.28;;;2.40;99.90;;;;;;20768619;28;20041;-77
2022/02/13 21:52:11;;;;;;;11.13;4.18;;;2.00;99.90;;;;;;20788564;28;20033;-75
2022/02/13 22:02:12;;;;;;;8.98;4.53;;;2.30;99.90;;;;;;20763033;28;20021;-75
2022/02/13 22:12:13;;;;;;;9.32;4.15;;;2.30;99.90;;;;;;20776151;28;20038;-77
2022/02/13 22:22:14;;;;;;;12.77;4.00;;;2.10;99.90;;;;;;20780686;28;20029;-76
2022/02/13 22:32:15;;;;;;;9.10;4.18;;;2.10;99.90;;;;;;20797999;28;20033;-76
2022/02/13 22:42:18;;;;;;;8.18;3.83;;;2.20;99.90;;;;;;20780155;28;20033;-76
2022/02/13 22:52:19;;;;;;;11.35;3.92;;;2.20;99.90;;;;;;20789726;28;20041;-77
2022/02/13 23:02:20;;;;;;;7.32;3.90;;;1.90;99.90;;;;;;20796146;28;20125;-77
2022/02/13 23:12:39;;;;;;;9.20;5.10;;;2.00;99.90;;;;;;20790548;28;20029;-74
2022/02/13 23:22:40;;;;;;;10.45;5.70;;;2.10;99.90;;;;;;20769565;28;20029;-77
2022/02/13 23:32:41;;;;;;;13.18;5.72;;;1.90;99.90;;;;;;20788705;28;20044;-76
2022/02/13 23:42:42;;;;;;;11.90;6.47;;;1.70;99.90;;;;;;20771098;28;20033;-77
2022/02/13 23:52:43;;;;;;;11.75;6.22;;;1.30;99.90;;;;;;20780495;28;20385;-77
